sensor_id;sensor_type;location;lat;lon;timestamp;temperature;humidity
48454;DHT22;34261;55.678;12.464;2022-08-19T05:26:43;22.90;99.90
48454;DHT22;34261;55.678;12.464;2022-08-19T05:29:15;23.00;99.90
48454;DHT22;34261;55.678;12.464;2022-08-19T05:31:52;23.10;99.90
48454;DHT22;34261;55.678;12.464;2022-08-19T05:34:29;23.20;99.90
48454;DHT22;34261;55.678;12.464;2022-08-19T05:36:58;23.30;99.90
48454;DHT22;34261;55.678;12.464;2022-08-19T05:39:43;23.40;99.90
48454;DHT22;34261;55.678;12.464;2022-08-19T05:42:13;23.40;99.90
48454;DHT22;34261;55.678;12.464;2022-08-19T06:59:19;24.50;99.90
48454;DHT22;34261;55.678;12.464;2022-08-19T07:02:26;24.60;99.90
48454;DHT22;34261;55.678;12.464;2022-08-19T09:39:11;27.30;99.90
48454;DHT22;34261;55.678;12.464;2022-08-19T09:41:37;27.30;99.90
48454;DHT22;34261;55.678;12.464;2022-08-19T09:44:13;27.20;99.90
48454;DHT22;34261;55.678;12.464;2022-08-19T09:47:01;27.20;99.90
48454;DHT22;34261;55.678;12.464;2022-08-19T09:49:27;27.20;99.90
48454;DHT22;34261;55.678;12.464;2022-08-19T09:51:56;27.20;99.90
48454;DHT22;34261;55.678;12.464;2022-08-19T09:54:23;27.30;99.90
48454;DHT22;34261;55.678;12.464;2022-08-19T09:56:58;27.30;99.90
48454;DHT22;34261;55.678;12.464;2022-08-19T09:59:25;27.10;99.90
48454;DHT22;34261;55.678;12.464;2022-08-19T10:08:10;27.30;99.90
48454;DHT22;34261;55.678;12.464;2022-08-19T10:10:59;27.20;99.90
48454;DHT22;34261;55.678;12.464;2022-08-19T10:13:48;27.30;99.90
48454;DHT22;34261;55.678;12.464;2022-08-19T10:16:21;27.40;99.90
48454;DHT22;34261;55.678;12.464;2022-08-19T10:18:54;27.40;99.90
48454;DHT22;34261;55.678;12.464;2022-08-19T10:21:48;27.40;99.90
48454;DHT22;34261;55.678;12.464;2022-08-19T10:24:16;27.40;99.90
48454;DHT22;34261;55.678;12.464;2022-08-19T10:26:47;27.40;99.90
48454;DHT22;34261;55.678;12.464;2022-08-19T10:29:34;27.40;99.90
48454;DHT22;34261;55.678;12.464;2022-08-19T10:32:12;27.40;99.90
48454;DHT22;34261;55.678;12.464;2022-08-19T10:34:42;27.40;99.90
48454;DHT22;34261;55.678;12.464;2022-08-19T10:37:08;27.40;99.90
48454;DHT22;34261;55.678;12.464;2022-08-19T10:39:36;27.40;99.90
48454;DHT22;34261;55.678;12.464;2022-08-19T10:42:09;27.50;99.90
48454;DHT22;34261;55.678;12.464;2022-08-19T10:44:41;27.50;99.90
48454;DHT22;34261;55.678;12.464;2022-08-19T10:47:07;27.50;99.90
48454;DHT22;34261;55.678;12.464;2022-08-19T10:50:06;27.50;99.90
48454;DHT22;34261;55.678;12.464;2022-08-19T10:52:51;27.40;99.90
48454;DHT22;34261;55.678;12.464;2022-08-19T10:55:18;27.40;99.90
48454;DHT22;34261;55.678;12.464;2022-08-19T10:58:26;27.40;99.90
48454;DHT22;34261;55.678;12.464;2022-08-19T11:00:52;27.30;99.90
48454;DHT22;34261;55.678;12.464;2022-08-19T11:03:22;27.20;99.90
48454;DHT22;34261;55.678;12.464;2022-08-19T11:06:02;27.20;99.90
48454;DHT22;34261;55.678;12.464;2022-08-19T11:08:53;27.30;99.90
48454;DHT22;34261;55.678;12.464;2022-08-19T11:12:00;27.40;99.90
48454;DHT22;34261;55.678;12.464;2022-08-19T11:14:48;27.40;99.90
48454;DHT22;34261;55.678;12.464;2022-08-19T11:17:23;27.50;99.90
48454;DHT22;34261;55.678;12.464;2022-08-19T11:19:52;27.40;99.90
48454;DHT22;34261;55.678;12.464;2022-08-19T11:22:19;27.40;99.90
48454;DHT22;34261;55.678;12.464;2022-08-19T11:24:47;27.40;99.90
48454;DHT22;34261;55.678;12.464;2022-08-19T11:27:26;27.30;99.90
48454;DHT22;34261;55.678;12.464;2022-08-19T11:29:57;27.20;99.00
48454;DHT22;34261;55.678;12.464;2022-08-19T11:32:22;27.10;99.40
48454;DHT22;34261;55.678;12.464;2022-08-19T11:34:54;27.10;99.40
48454;DHT22;34261;55.678;12.464;2022-08-19T11:37:30;27.00;99.80
48454;DHT22;34261;55.678;12.464;2022-08-19T11:39:58;26.90;99.90
48454;DHT22;34261;55.678;12.464;2022-08-19T11:42:23;27.00;99.90
48454;DHT22;34261;55.678;12.464;2022-08-19T11:45:12;26.80;99.90
48454;DHT22;34261;55.678;12.464;2022-08-19T11:47:43;26.70;99.90
48454;DHT22;34261;55.678;12.464;2022-08-19T11:50:16;26.60;99.90
48454;DHT22;34261;55.678;12.464;2022-08-19T11:52:53;26.40;99.90
48454;DHT22;34261;55.678;12.464;2022-08-19T11:55:22;26.30;99.90
48454;DHT22;34261;55.678;12.464;2022-08-19T11:57:56;26.00;99.90
48454;DHT22;34261;55.678;12.464;2022-08-19T12:00:37;25.80;99.90
48454;DHT22;34261;55.678;12.464;2022-08-19T12:03:13;25.60;99.90
48454;DHT22;34261;55.678;12.464;2022-08-19T12:05:43;25.60;99.90
48454;DHT22;34261;55.678;12.464;2022-08-19T12:08:22;25.40;99.90
48454;DHT22;34261;55.678;12.464;2022-08-19T12:11:05;25.30;99.90
48454;DHT22;34261;55.678;12.464;2022-08-19T12:13:40;25.20;99.90
48454;DHT22;34261;55.678;12.464;2022-08-19T12:16:09;25.20;99.90
48454;DHT22;34261;55.678;12.464;2022-08-19T12:19:08;25.10;99.90
48454;DHT22;34261;55.678;12.464;2022-08-19T12:21:45;25.00;99.90
48454;DHT22;34261;55.678;12.464;2022-08-19T12:24:36;24.90;99.90
48454;DHT22;34261;55.678;12.464;2022-08-19T12:27:06;24.90;99.90
48454;DHT22;34261;55.678;12.464;2022-08-19T12:29:56;24.90;99.90
48454;DHT22;34261;55.678;12.464;2022-08-19T12:32:47;24.80;99.90
48454;DHT22;34261;55.678;12.464;2022-08-19T12:35:14;24.80;99.90
48454;DHT22;34261;55.678;12.464;2022-08-19T12:38:07;24.80;99.90
